EDT,Max TemperatureF,Mean TemperatureF,Min TemperatureF,Max Dew PointF,MeanDew PointF,Min DewpointF,Max Humidity, Mean Humidity, Min Humidity, Max Sea Level PressureIn, Mean Sea Level PressureIn, Min Sea Level PressureIn, Max VisibilityMiles, Mean VisibilityMiles, Min VisibilityMiles, Max Wind SpeedMPH, Mean Wind SpeedMPH, Max Gust SpeedMPH,PrecipitationIn, CloudCover, Events, WindDirDegrees
2012-10-1,90,81,73,76,74,72,100,84,57,29.86,29.81,29.73,10,7,1,20,7,25,2.32,5,Rain-Thunderstorm,172
2012-10-2,87,81,75,75,74,72,94,85,61,30.05,29.91,29.82,10,10,10,15,9,22,0.17,4,Rain,184
2012-10-3,90,81,73,75,73,71,97,85,55,30.20,30.11,30.04,10,10,9,21,4,30,0.02,4,Rain,171
2012-10-4,91,82,73,75,72,70,94,80,53,30.21,30.17,30.09,10,10,10,20,5,25,0.07,3,Rain,37
2012-10-5,89,80,73,75,73,72,94,83,58,30.14,30.06,30.00,10,10,2,15,4,,0.24,3,Rain-Thunderstorm,39
2012-10-6,90,81,73,76,72,68,100,83,53,30.01,29.96,29.90,10,10,7,17,3,29,0.03,3,Rain-Thunderstorm,19
2012-10-7,89,81,73,73,71,68,91,77,55,30.02,29.98,29.94,10,10,10,14,4,,0.00,0,,114
2012-10-8,87,81,75,74,72,68,94,79,55,30.06,30.00,29.95,10,10,5,9,2,,0.14,3,Rain-Thunderstorm,100
2012-10-9,87,80,73,73,71,67,94,79,61,30.09,30.04,30.00,10,9,2,13,6,17,0.01,3,,17
2012-10-10,86,78,71,67,64,58,84,68,41,30.14,30.10,30.06,10,10,10,12,6,,0.00,0,,18
2012-10-11,84,76,69,66,64,63,87,70,49,30.20,30.16,30.12,10,10,8,14,5,18,0.00,1,,25
2012-10-12,84,76,69,66,61,54,81,63,34,30.22,30.17,30.13,10,10,10,13,8,20,0.00,0,,14
2012-10-13,84,78,71,65,63,61,78,65,47,30.21,30.17,30.13,10,10,10,20,8,25,0.00,2,,39
2012-10-14,87,79,71,71,67,66,85,71,51,30.14,30.08,30.02,10,10,10,15,7,17,0.00,5,,65
2012-10-15,89,80,73,72,70,64,94,76,46,30.00,29.92,29.85,10,10,10,14,4,,0.00,5,,30
2012-10-16,84,76,71,70,64,62,85,67,49,29.91,29.86,29.82,10,10,10,10,6,,0.00,2,,16
2012-10-17,81,75,69,71,67,63,87,77,66,29.92,29.87,29.83,10,10,10,8,3,,0.00,4,,79
2012-10-18,88,78,70,69,68,66,90,74,51,29.93,29.87,29.81,10,10,10,12,6,,0.00,4,,191
2012-10-19,88,78,70,70,66,61,90,67,43,29.90,29.86,29.81,10,10,10,10,3,,0.00,2,,285
2012-10-20,82,76,69,69,54,45,85,49,28,29.99,29.93,29.87,10,10,10,10,7,20,0.00,1,,323
2012-10-21,82,72,62,59,53,49,70,52,34,30.09,30.04,29.99,10,10,10,12,5,,0.00,0,,13
2012-10-22,82,73,64,63,61,59,84,65,44,30.12,30.08,30.04,10,10,10,20,7,25,0.00,1,,36
2012-10-23,84,76,68,64,62,61,81,63,47,30.07,30.05,30.02,10,10,10,18,7,23,0.00,2,,45
2012-10-24,87,79,72,68,66,63,82,68,48,30.05,30.00,29.95,10,10,10,18,8,26,0.00,4,,47
2012-10-25,82,78,73,72,70,67,90,83,60,29.95,29.89,29.84,10,8,2,17,8,24,0.29,8,Rain,37
2012-10-26,84,76,69,69,66,62,91,73,48,29.81,29.69,29.62,10,9,2,30,12,44,0.27,6,Rain,8
2012-10-27,73,70,68,62,60,59,73,70,64,29.70,29.61,29.55,10,10,10,21,16,30,0.00,3,,315
2012-10-28,73,66,59,61,57,52,86,73,60,29.81,29.73,29.69,10,10,10,18,13,26,0.00,4,,289
2012-10-29,69,60,51,52,41,33,81,55,27,29.88,29.81,29.75,10,10,10,18,15,25,0.00,2,,292
2012-10-30,68,57,48,46,34,28,69,42,26,29.97,29.89,29.84,10,10,10,24,14,36,0.00,0,,278
2012-10-31,72,61,51,51,40,33,72,50,27,30.07,30.02,29.97,10,10,10,21,8,29,0.00,0,,282